Time;durP1;ratioP1;P1;durP2;ratioP2;P2;SDS_P1;SDS_P2;PMS_P1;PMS_P2;Temp;Humidity;BMP_temperature;BMP_pressure;BME280_temperature;BME280_humidity;BME280_pressure;Samples;Min_cycle;Max_cycle;Signal;HPM_P1;HPM_P2
2023/02/17 00:01:43;;;;;;;27.15;14.73;;;;;;;-1.20;100.00;95682.09;5076902;28;20030;-73
2023/02/17 00:04:09;;;;;;;22.75;13.13;;;;;;;-1.24;100.00;95673.00;5077232;28;20433;-73
2023/02/17 00:06:34;;;;;;;30.73;14.55;;;;;;;-1.22;100.00;95672.00;5077128;28;20123;-73
2023/02/17 00:09:00;;;;;;;52.63;24.15;;;;;;;-1.21;100.00;95665.22;5075940;28;20317;-73
2023/02/17 00:11:27;;;;;;;66.88;30.60;;;;;;;-1.17;100.00;95666.69;5078381;28;20149;-73
2023/02/17 00:13:52;;;;;;;93.50;37.55;;;;;;;-1.19;100.00;95673.59;5076322;28;20074;-73
2023/02/17 00:16:20;;;;;;;64.63;28.45;;;;;;;-1.17;100.00;95664.97;5059152;28;20589;-74
2023/02/17 00:18:47;;;;;;;38.97;19.35;;;;;;;-1.13;100.00;95671.53;5076674;28;20028;-73
2023/02/17 00:21:21;;;;;;;55.22;25.30;;;;;;;-1.16;100.00;95673.44;5075283;28;20028;-74
2023/02/17 00:23:47;;;;;;;44.65;21.48;;;;;;;-1.23;100.00;95675.47;5048890;28;20028;-73
2023/02/17 00:26:13;;;;;;;39.03;20.92;;;;;;;-1.39;100.00;95678.91;5072408;28;20023;-74
2023/02/17 00:28:39;;;;;;;28.48;15.95;;;;;;;-1.38;100.00;95686.41;5056555;28;20117;-73
2023/02/17 00:31:10;;;;;;;34.15;19.38;;;;;;;-1.36;100.00;95683.81;5071039;28;20032;-73
2023/02/17 00:33:36;;;;;;;48.22;26.10;;;;;;;-1.44;100.00;95683.38;5079996;28;20062;-73
2023/02/17 00:36:04;;;;;;;52.10;26.48;;;;;;;-1.67;100.00;95685.41;5065903;28;20493;-73
2023/02/17 00:38:30;;;;;;;29.75;15.27;;;;;;;-1.84;100.00;95675.31;5068087;28;20039;-74
2023/02/17 00:40:56;;;;;;;22.08;12.45;;;;;;;-1.90;100.00;95682.41;5064365;28;20017;-73
2023/02/17 00:43:21;;;;;;;25.10;12.60;;;;;;;-1.77;100.00;95671.56;5037560;28;20032;-74
2023/02/17 00:45:48;;;;;;;30.70;20.00;;;;;;;-1.69;100.00;95669.44;5069467;28;20479;-74
2023/02/17 00:48:13;;;;;;;29.85;18.05;;;;;;;-1.63;100.00;95669.13;5066997;28;20025;-74
2023/02/17 00:50:38;;;;;;;39.50;19.48;;;;;;;-1.36;100.00;95655.88;5058087;28;20089;-73
2023/02/17 00:53:04;;;;;;;60.05;26.77;;;;;;;-1.33;100.00;95656.53;5074932;28;20035;-73
2023/02/17 00:55:29;;;;;;;32.10;16.98;;;;;;;-1.33;100.00;95655.72;5057234;28;20047;-74
2023/02/17 00:57:55;;;;;;;29.50;16.20;;;;;;;-1.37;100.00;95655.06;5077178;28;20024;-74
2023/02/17 01:00:20;;;;;;;28.67;16.33;;;;;;;-1.40;100.00;95655.22;5073670;28;20529;-74
2023/02/17 01:02:46;;;;;;;39.20;18.55;;;;;;;-1.46;100.00;95659.81;5077546;28;20016;-74
2023/02/17 01:05:11;;;;;;;31.52;15.77;;;;;;;-1.70;100.00;95664.44;5075196;28;20028;-74
2023/02/17 01:07:36;;;;;;;22.60;14.40;;;;;;;-2.01;100.00;95655.06;5077945;28;20016;-73
2023/02/17 01:10:04;;;;;;;25.35;14.88;;;;;;;-2.17;100.00;95656.72;5078414;28;20032;-74
2023/02/17 01:12:29;;;;;;;23.30;13.68;;;;;;;-2.21;100.00;95650.97;5078465;28;20024;-74
2023/02/17 01:14:55;;;;;;;22.70;14.10;;;;;;;-2.00;100.00;95648.25;5079369;28;20672;-74
2023/02/17 01:17:21;;;;;;;24.75;13.75;;;;;;;-1.79;100.00;95642.06;5077681;28;20136;-73
2023/02/17 01:19:46;;;;;;;26.30;15.00;;;;;;;-1.72;100.00;95639.16;5080718;28;20091;-74
2023/02/17 01:22:12;;;;;;;50.42;27.92;;;;;;;-1.69;100.00;95638.16;5078964;28;20118;-75
2023/02/17 01:24:38;;;;;;;43.03;23.80;;;;;;;-1.69;100.00;95635.63;5079364;28;20035;-74
2023/02/17 01:27:04;;;;;;;33.15;19.52;;;;;;;-1.67;100.00;95641.47;5078262;28;20035;-73
2023/02/17 01:29:29;;;;;;;38.15;20.33;;;;;;;-1.66;100.00;95638.00;5064014;28;20468;-74
2023/02/17 01:31:55;;;;;;;33.05;17.40;;;;;;;-1.70;100.00;95636.50;5061823;28;20497;-73
2023/02/17 01:34:20;;;;;;;29.20;16.65;;;;;;;-1.62;100.00;95640.31;5087870;28;20084;-74
2023/02/17 01:36:46;;;;;;;34.05;20.42;;;;;;;-1.51;100.00;95631.31;5063766;28;20054;-74
2023/02/17 01:39:15;;;;;;;38.53;20.50;;;;;;;-1.36;100.00;95636.38;5078940;28;20024;-74
2023/02/17 01:41:41;;;;;;;26.23;16.77;;;;;;;-1.11;100.00;95635.88;5080303;28;20032;-74
2023/02/17 01:44:16;;;;;;;28.65;17.65;;;;;;;-1.18;100.00;95643.00;5064248;28;20127;-74
2023/02/17 01:46:44;;;;;;;28.90;17.63;;;;;;;-1.57;100.00;95637.50;5078116;28;20548;-74
2023/02/17 01:49:34;;;;;;;25.60;14.13;;;;;;;-2.13;100.00;95635.38;5078299;28;20032;-73
2023/02/17 01:52:09;;;;;;;18.73;12.65;;;;;;;-2.17;100.00;95642.31;5078263;28;20362;-74
2023/02/17 01:54:57;;;;;;;26.15;14.63;;;;;;;-2.37;100.00;95641.66;5078940;28;20033;-73
2023/02/17 01:57:24;;;;;;;23.17;14.70;;;;;;;-2.41;100.00;95635.94;5077346;28;20085;-73
2023/02/17 01:59:50;;;;;;;27.08;16.17;;;;;;;-2.26;100.00;95645.34;5078086;28;20056;-73
2023/02/17 02:02:15;;;;;;;28.00;16.13;;;;;;;-2.22;100.00;95643.47;5059578;28;20119;-74
2023/02/17 02:04:42;;;;;;;27.77;15.55;;;;;;;-2.25;100.00;95653.75;5078391;28;20040;-74
2023/02/17 02:07:12;;;;;;;29.33;16.40;;;;;;;-1.96;100.00;95647.22;5078280;28;20028;-74
2023/02/17 02:09:42;;;;;;;36.08;20.63;;;;;;;-1.94;100.00;95648.78;5059480;28;20107;-74
2023/02/17 02:12:31;;;;;;;33.85;18.30;;;;;;;-1.68;100.00;95645.72;5078941;28;20036;-73
2023/02/17 02:15:02;;;;;;;29.40;15.23;;;;;;;-1.33;100.00;95635.41;5067533;28;20016;-73
2023/02/17 02:17:31;;;;;;;32.00;17.33;;;;;;;-1.50;100.00;95632.94;5078030;28;20645;-74
2023/02/17 02:20:24;;;;;;;27.85;17.38;;;;;;;-1.59;100.00;95639.31;5077950;28;20027;-74
2023/02/17 02:23:15;;;;;;;38.65;18.67;;;;;;;-1.64;100.00;95643.84;5078242;28;20031;-74
2023/02/17 02:26:05;;;;;;;42.80;22.02;;;;;;;-1.67;100.00;95636.38;5078394;28;20112;-73
2023/02/17 02:28:36;;;;;;;;;;;;;;;-1.80;100.00;95640.47;5067775;28;20104;-73
2023/02/17 02:31:21;;;;;;;33.30;15.23;;;;;;;-1.74;100.00;95648.56;5077775;28;20009;-73
2023/02/17 02:33:52;;;;;;;36.88;18.10;;;;;;;-1.71;100.00;95635.72;5083790;28;20020;-74
2023/02/17 02:36:30;;;;;;;35.90;18.05;;;;;;;-1.71;100.00;95647.59;5084430;28;20055;-73
2023/02/17 02:39:20;;;;;;;29.67;16.10;;;;;;;-1.88;100.00;95602.78;5076969;28;20028;-74
2023/02/17 02:41:45;;;;;;;35.15;18.10;;;;;;;-1.81;100.00;95647.25;5073434;28;20036;-73
2023/02/17 02:44:13;;;;;;;34.42;17.65;;;;;;;-1.81;100.00;95639.63;5077570;28;20031;-73
2023/02/17 02:46:39;;;;;;;29.83;17.15;;;;;;;-1.69;100.00;95641.53;5077288;28;20035;-73
2023/02/17 02:49:04;;;;;;;42.72;21.55;;;;;;;-1.60;100.00;95643.56;5075926;28;20498;-73
2023/02/17 02:51:44;;;;;;;52.50;23.65;;;;;;;-1.67;100.00;95642.25;5077010;28;20541;-73
2023/02/17 02:54:46;;;;;;;34.75;18.65;;;;;;;-1.90;100.00;95616.47;5078391;28;20598;-74
2023/02/17 02:57:29;;;;;;;31.80;17.67;;;;;;;-1.84;100.00;95638.97;5077453;28;20028;-74
2023/02/17 03:00:05;;;;;;;30.08;17.25;;;;;;;-1.72;100.00;95634.06;5079165;28;20422;-74
2023/02/17 03:02:44;;;;;;;34.25;17.85;;;;;;;-1.73;100.00;95636.69;5077960;28;20024;-74
2023/02/17 03:05:27;;;;;;;34.78;19.00;;;;;;;-1.88;100.00;95643.38;5075687;28;20039;-74
2023/02/17 03:08:19;;;;;;;39.47;19.00;;;;;;;-1.97;100.00;95640.50;5077669;28;20064;-74
2023/02/17 03:10:51;;;;;;;35.47;17.60;;;;;;;-2.23;100.00;95650.25;5076841;28;20028;-74
2023/02/17 03:13:17;;;;;;;39.30;19.90;;;;;;;-2.11;100.00;95638.66;5076848;28;20028;-74
2023/02/17 03:15:43;;;;;;;42.78;22.50;;;;;;;-1.85;100.00;95647.47;5076337;28;20056;-74
2023/02/17 03:18:08;;;;;;;40.25;23.73;;;;;;;-1.70;100.00;95641.59;5059239;28;20070;-74
2023/02/17 03:20:39;;;;;;;37.95;21.02;;;;;;;-1.71;100.00;95639.97;5076649;28;20538;-74
2023/02/17 03:23:06;;;;;;;33.20;18.88;;;;;;;-1.40;100.00;95640.00;5075384;28;20024;-73
2023/02/17 03:25:32;;;;;;;43.78;19.95;;;;;;;-1.48;100.00;95639.59;5056403;28;20476;-74
2023/02/17 03:27:57;;;;;;;32.42;18.05;;;;;;;-1.45;100.00;95643.69;5072893;28;20032;-74
2023/02/17 03:30:22;;;;;;;34.78;18.30;;;;;;;-1.33;100.00;95638.75;5059206;28;20551;-74
2023/02/17 03:32:48;;;;;;;34.70;17.85;;;;;;;-1.15;100.00;95639.47;5075676;28;20032;-74
2023/02/17 03:35:14;;;;;;;35.42;18.33;;;;;;;-0.49;100.00;95634.09;5059309;28;20147;-74
2023/02/17 03:37:39;;;;;;;33.03;19.25;;;;;;;-0.57;100.00;95635.34;5087569;28;20032;-73
2023/02/17 03:40:06;;;;;;;30.33;17.55;;;;;;;-0.63;100.00;95642.50;5076360;28;20400;-74
2023/02/17 03:42:32;;;;;;;31.67;18.27;;;;;;;-0.66;100.00;95635.88;5059728;28;20406;-74
2023/02/17 03:44:57;;;;;;;37.50;19.25;;;;;;;-0.60;100.00;95640.59;5075661;28;20551;-74
2023/02/17 03:47:23;;;;;;;43.90;20.55;;;;;;;-0.79;100.00;95634.91;5076593;28;20508;-74
2023/02/17 03:49:50;;;;;;;34.50;18.58;;;;;;;-0.70;100.00;95636.94;5063621;28;20344;-74
2023/02/17 03:52:15;;;;;;;35.13;19.15;;;;;;;-0.71;100.00;95634.50;5055633;28;20029;-73
2023/02/17 03:54:40;;;;;;;38.35;19.85;;;;;;;-0.56;100.00;95631.91;5066641;28;20085;-74
2023/02/17 03:57:06;;;;;;;37.33;20.48;;;;;;;-0.51;100.00;95620.66;5075393;28;20099;-74
2023/02/17 03:59:31;;;;;;;42.75;21.42;;;;;;;-0.68;100.00;95621.63;5076448;28;20026;-74
2023/02/17 04:01:57;;;;;;;37.78;21.58;;;;;;;-0.65;100.00;95623.97;5075883;28;20782;-74
2023/02/17 04:04:22;;;;;;;37.83;21.13;;;;;;;-0.65;100.00;95622.25;5076191;28;20111;-74
2023/02/17 04:06:47;;;;;;;38.25;21.30;;;;;;;-0.69;100.00;95618.25;5075939;28;20445;-74
2023/02/17 04:09:13;;;;;;;44.30;23.10;;;;;;;-0.91;100.00;95597.50;5077393;28;20023;-74
2023/02/17 04:11:38;;;;;;;34.97;19.88;;;;;;;-0.67;100.00;95625.78;5055311;28;20475;-74
2023/02/17 04:14:04;;;;;;;43.05;21.08;;;;;;;-0.67;100.00;95621.50;5069837;28;20375;-74
2023/02/17 04:16:29;;;;;;;46.30;21.92;;;;;;;-0.74;100.00;95619.41;5058903;28;20477;-74
2023/02/17 04:18:54;;;;;;;42.17;21.73;;;;;;;-0.67;100.00;95615.59;5074092;28;20093;-74
2023/02/17 04:21:20;;;;;;;43.15;21.73;;;;;;;-0.70;100.00;95621.69;5075669;28;20032;-73
2023/02/17 04:23:45;;;;;;;37.58;20.73;;;;;;;-0.90;100.00;95623.72;5053941;28;20028;-74
2023/02/17 04:26:11;;;;;;;42.88;23.92;;;;;;;-0.98;100.00;95620.78;5074590;28;20024;-73
2023/02/17 04:28:40;;;;;;;42.25;21.60;;;;;;;-0.86;100.00;95615.81;5074333;28;20035;-73
2023/02/17 04:31:06;;;;;;;45.88;23.02;;;;;;;-0.89;100.00;95607.56;5058457;28;20100;-74
2023/02/17 04:33:31;;;;;;;40.97;22.67;;;;;;;-1.04;100.00;95613.50;5079039;28;20440;-74
2023/02/17 04:35:58;;;;;;;41.17;21.40;;;;;;;-0.74;100.00;95617.66;5064580;28;20032;-74
2023/02/17 04:38:32;;;;;;;38.58;20.40;;;;;;;-0.72;100.00;95609.97;5071244;28;20099;-75
2023/02/17 04:40:58;;;;;;;35.83;19.38;;;;;;;-0.86;100.00;95615.81;5074107;28;20027;-75
2023/02/17 04:43:25;;;;;;;40.05;20.80;;;;;;;-0.84;100.00;95614.03;5060756;28;20101;-74
2023/02/17 04:45:51;;;;;;;42.30;21.23;;;;;;;-0.76;100.00;95616.13;5078050;28;20044;-74
2023/02/17 04:48:17;;;;;;;39.63;19.48;;;;;;;-0.71;100.00;95619.25;5079444;28;20028;-75
2023/02/17 04:50:42;;;;;;;36.30;20.70;;;;;;;-0.64;100.00;95607.81;5080608;28;20431;-74
2023/02/17 04:53:08;;;;;;;40.47;21.20;;;;;;;-0.60;100.00;95614.34;5067809;28;20608;-75
2023/02/17 04:55:33;;;;;;;36.17;21.00;;;;;;;-0.67;100.00;95610.53;5077687;28;20020;-75
2023/02/17 04:57:59;;;;;;;45.47;20.70;;;;;;;-0.71;100.00;95611.63;5078024;28;20020;-74
2023/02/17 05:00:24;;;;;;;40.00;21.52;;;;;;;-0.71;100.00;95614.16;5081044;28;20062;-75
2023/02/17 05:02:50;;;;;;;46.38;24.20;;;;;;;-0.60;100.00;95622.00;5078065;28;20555;-74
2023/02/17 05:05:17;;;;;;;40.08;21.98;;;;;;;-0.37;100.00;95621.50;5062378;28;20424;-74
2023/02/17 05:07:43;;;;;;;38.55;18.58;;;;;;;-0.28;100.00;95627.78;5079993;28;20027;-73
2023/02/17 05:10:09;;;;;;;49.58;24.02;;;;;;;-0.63;100.00;95637.41;5078561;28;20023;-73
2023/02/17 05:12:34;;;;;;;53.50;25.35;;;;;;;-1.01;100.00;95644.63;5079078;28;20349;-73
2023/02/17 05:15:00;;;;;;;42.67;23.60;;;;;;;-1.19;100.00;95641.34;5077587;28;20504;-73
2023/02/17 05:17:25;;;;;;;46.08;25.02;;;;;;;-1.08;100.00;95643.31;5080069;28;20028;-74
2023/02/17 05:19:51;;;;;;;38.58;20.92;;;;;;;-1.14;100.00;95653.81;5079331;28;20063;-73
2023/02/17 05:22:16;;;;;;;39.35;21.92;;;;;;;-1.21;100.00;95647.44;5067941;28;20118;-74
2023/02/17 05:24:42;;;;;;;43.53;21.63;;;;;;;-1.10;100.00;95645.97;5059018;28;20129;-74
2023/02/17 05:27:07;;;;;;;41.90;21.00;;;;;;;-1.00;100.00;95661.53;5070542;28;20036;-74
2023/02/17 05:29:32;;;;;;;40.58;22.70;;;;;;;-0.94;100.00;95663.72;5079801;28;20074;-74
2023/02/17 05:31:58;;;;;;;46.28;24.65;;;;;;;-1.10;100.00;95653.59;5079687;28;20036;-73
2023/02/17 05:34:23;;;;;;;37.60;22.63;;;;;;;-0.91;100.00;95661.03;5090474;28;20035;-75
2023/02/17 05:36:49;;;;;;;37.28;22.23;;;;;;;-0.83;100.00;95675.84;5083849;28;20062;-74
2023/02/17 05:39:14;;;;;;;43.67;23.73;;;;;;;-0.94;100.00;95673.06;5080605;28;20142;-74
2023/02/17 05:41:40;;;;;;;38.58;22.40;;;;;;;-0.74;100.00;95685.53;5047048;28;20082;-74
2023/02/17 05:44:05;;;;;;;50.88;25.10;;;;;;;-0.46;100.00;95679.72;5066560;28;20582;-74
2023/02/17 05:46:30;;;;;;;79.43;37.55;;;;;;;-0.56;100.00;95681.94;5058624;28;20036;-74
2023/02/17 05:48:56;;;;;;;70.45;34.30;;;;;;;-0.32;100.00;95683.09;5074802;28;20028;-74
2023/02/17 05:51:21;;;;;;;65.32;32.92;;;;;;;-0.30;100.00;95688.09;5064173;28;20050;-74
2023/02/17 05:53:46;;;;;;;53.80;29.35;;;;;;;-0.25;100.00;95678.47;5099472;28;20023;-74
2023/02/17 05:56:12;;;;;;;45.45;25.52;;;;;;;-0.11;100.00;95688.69;5080182;28;20028;-74
2023/02/17 05:58:37;;;;;;;40.03;22.70;;;;;;;0.20;100.00;95686.00;5075745;28;20338;-74
2023/02/17 06:01:10;;;;;;;56.60;28.00;;;;;;;0.16;100.00;95692.16;5080064;28;20054;-76
2023/02/17 06:03:36;;;;;;;53.38;28.92;;;;;;;0.28;100.00;95691.47;5073132;28;20067;-74
2023/02/17 06:06:02;;;;;;;46.25;23.20;;;;;;;-0.06;100.00;95694.31;5070982;28;20028;-74
2023/02/17 06:08:28;;;;;;;38.33;22.20;;;;;;;-0.14;100.00;95704.13;5080335;28;20031;-74
2023/02/17 06:10:54;;;;;;;35.75;20.98;;;;;;;0.32;100.00;95694.66;5078280;28;20032;-74
2023/02/17 06:13:20;;;;;;;41.05;22.15;;;;;;;1.02;100.00;95702.22;5059418;28;20662;-74
2023/02/17 06:15:45;;;;;;;43.63;24.85;;;;;;;1.82;100.00;95701.38;5074867;28;20514;-75
2023/02/17 06:18:11;;;;;;;36.08;21.88;;;;;;;2.30;100.00;95699.06;5078207;28;20056;-74
2023/02/17 06:20:36;;;;;;;36.08;21.70;;;;;;;2.59;100.00;95698.75;5076738;28;20031;-74
2023/02/17 06:23:02;;;;;;;37.83;21.70;;;;;;;2.95;99.63;95704.84;5079586;28;20034;-74
2023/02/17 06:25:27;;;;;;;38.25;22.13;;;;;;;3.18;97.78;95706.59;5076292;28;20032;-75
2023/02/17 06:27:53;;;;;;;39.38;20.45;;;;;;;3.06;97.46;95707.44;5064677;28;20027;-75
2023/02/17 06:30:20;;;;;;;33.45;19.02;;;;;;;2.79;97.45;95696.56;5078170;28;20825;-74
2023/02/17 06:32:45;;;;;;;34.13;18.90;;;;;;;2.66;99.83;95712.72;5076616;28;20039;-74
2023/02/17 06:35:11;;;;;;;35.33;18.45;;;;;;;3.25;97.71;95709.53;5079983;28;20409;-75
2023/02/17 06:37:36;;;;;;;32.50;18.98;;;;;;;3.90;94.46;95704.84;5097561;28;20484;-78
2023/02/17 06:40:02;;;;;;;28.58;19.40;;;;;;;4.50;91.73;95710.53;5081010;28;20055;-74
2023/02/17 06:42:28;;;;;;;35.42;22.20;;;;;;;4.53;89.89;95715.44;5075612;28;20521;-75
2023/02/17 06:44:53;;;;;;;39.42;22.95;;;;;;;4.51;90.31;95709.63;5077760;28;20024;-74
2023/02/17 06:47:18;;;;;;;34.42;21.92;;;;;;;4.61;90.45;95710.56;5078224;28;20072;-74
2023/02/17 06:49:44;;;;;;;63.33;40.20;;;;;;;6.05;83.91;95712.03;5076541;28;20020;-75
2023/02/17 06:52:09;;;;;;;71.65;49.15;;;;;;;7.85;72.99;95709.50;5071065;28;20542;-75
2023/02/17 06:54:35;;;;;;;59.35;44.08;;;;;;;7.81;66.80;95708.13;5076861;28;20042;-75
2023/02/17 06:57:00;;;;;;;56.47;41.15;;;;;;;9.28;59.34;95701.56;5071525;28;20028;-75
2023/02/17 06:59:25;;;;;;;40.22;28.58;;;;;;;9.08;57.57;95702.63;5070486;28;20028;-74
2023/02/17 07:01:51;;;;;;;35.65;26.23;;;;;;;12.28;49.72;95707.59;5077960;28;20437;-76
2023/02/17 07:04:16;;;;;;;29.85;20.98;;;;;;;13.61;44.81;95695.59;5076201;28;20220;-75
2023/02/17 07:06:42;;;;;;;27.45;20.95;;;;;;;13.83;44.28;95691.41;5081423;28;20409;-75
2023/02/17 07:09:10;;;;;;;23.02;19.33;;;;;;;15.27;41.25;95694.56;5078681;28;20043;-76
2023/02/17 07:11:35;;;;;;;26.35;19.75;;;;;;;15.30;41.22;95699.41;5076603;28;20035;-76
2023/02/17 07:14:01;;;;;;;29.65;22.27;;;;;;;15.73;40.02;95696.97;5077444;28;20028;-76
2023/02/17 07:16:27;;;;;;;37.95;30.10;;;;;;;15.62;39.62;95695.63;5061623;28;20433;-76
2023/02/17 07:18:52;;;;;;;27.08;23.15;;;;;;;14.63;42.02;95695.22;5079803;28;20028;-76
2023/02/17 07:21:17;;;;;;;29.83;19.10;;;;;;;17.64;37.18;95694.03;5075675;28;20185;-76
2023/02/17 07:23:43;;;;;;;22.33;19.35;;;;;;;17.89;36.78;95695.94;5079246;28;20020;-77
2023/02/17 07:26:10;;;;;;;23.65;18.88;;;;;;;15.99;39.41;95694.59;5078052;28;20417;-77
2023/02/17 07:28:36;;;;;;;27.70;18.10;;;;;;;16.47;37.74;95702.72;5076512;28;20027;-77
2023/02/17 07:31:10;;;;;;;25.65;19.02;;;;;;;18.14;35.63;95698.81;5077379;28;20075;-77
2023/02/17 07:33:35;;;;;;;20.90;17.55;;;;;;;18.80;34.16;95704.97;5079951;28;20052;-78
2023/02/17 07:36:09;;;;;;;22.17;19.20;;;;;;;17.78;34.78;95706.19;5087778;28;20105;-77
2023/02/17 07:38:34;;;;;;;21.33;18.83;;;;;;;17.05;34.82;95699.75;5071998;28;20122;-77
2023/02/17 07:41:05;;;;;;;21.15;17.65;;;;;;;16.90;36.13;95700.84;5076907;28;20161;-77
2023/02/17 07:43:31;;;;;;;21.33;17.60;;;;;;;18.04;34.24;95698.44;5076086;28;20111;-77
2023/02/17 07:45:56;;;;;;;19.77;16.88;;;;;;;19.23;32.47;95699.28;5075433;28;20468;-77
2023/02/17 07:48:21;;;;;;;23.05;18.05;;;;;;;16.83;35.18;95706.03;5077117;28;20032;-77
2023/02/17 07:50:47;;;;;;;22.33;18.50;;;;;;;14.98;38.28;95697.16;5075765;28;20051;-79
2023/02/17 07:53:12;;;;;;;20.92;18.65;;;;;;;12.97;42.44;95710.44;5078562;28;20069;-80
2023/02/17 07:55:38;;;;;;;20.70;16.77;;;;;;;13.56;42.13;95708.31;5075092;28;20476;-79
2023/02/17 07:58:03;;;;;;;24.38;19.63;;;;;;;13.34;42.36;95703.84;5077867;28;20070;-78
2023/02/17 08:00:28;;;;;;;23.70;17.33;;;;;;;13.78;41.49;95704.13;5061269;28;20039;-80
2023/02/17 08:02:54;;;;;;;19.83;16.25;;;;;;;13.16;41.80;95693.69;5060460;28;20027;-78
2023/02/17 08:05:19;;;;;;;21.60;16.02;;;;;;;13.50;41.35;95709.00;5059405;28;20034;-76
2023/02/17 08:07:45;;;;;;;27.48;17.35;;;;;;;13.56;41.43;95710.91;5059158;28;20054;-77
2023/02/17 08:15:40;;;;;;;20.40;16.83;;;;;;;21.35;29.74;95706.53;5074421;28;20030;-77
2023/02/17 08:18:05;;;;;;;28.08;22.02;;;;;;;21.79;30.01;95702.78;5060035;28;20035;-77
2023/02/17 08:20:31;;;;;;;22.33;18.25;;;;;;;20.71;30.23;95710.31;5086483;28;20332;-77
2023/02/17 08:22:56;;;;;;;18.45;16.27;;;;;;;21.31;29.18;95713.28;5073709;28;20394;-76
2023/02/17 08:25:22;;;;;;;18.10;16.20;;;;;;;21.58;28.83;95713.81;5073721;28;20041;-77
2023/02/17 08:27:47;;;;;;;19.70;15.80;;;;;;;21.02;29.23;95706.81;5075154;28;20024;-76
2023/02/17 08:30:13;;;;;;;17.13;15.32;;;;;;;20.34;29.91;95719.91;5073317;28;20066;-77
2023/02/17 08:32:38;;;;;;;20.50;15.90;;;;;;;19.70;31.21;95711.28;5073477;28;20032;-76
2023/02/17 08:35:05;;;;;;;26.45;22.30;;;;;;;19.59;31.29;95710.09;5075807;28;20219;-77
2023/02/17 08:37:32;;;;;;;15.90;14.17;;;;;;;21.25;29.09;95707.03;5082716;28;20090;-77
2023/02/17 08:40:00;;;;;;;17.33;14.00;;;;;;;20.77;30.15;95703.41;5092270;28;20113;-77
2023/02/17 08:42:26;;;;;;;16.85;14.57;;;;;;;20.91;29.98;95708.34;5076254;28;20607;-77
2023/02/17 08:44:51;;;;;;;18.38;14.70;;;;;;;22.01;29.05;95703.97;5093551;28;20036;-77
2023/02/17 08:47:17;;;;;;;16.08;14.00;;;;;;;21.76;29.40;95711.97;5093331;28;20024;-77
2023/02/17 08:49:42;;;;;;;18.73;14.82;;;;;;;22.38;28.54;95710.75;5088400;28;20019;-77
2023/02/17 08:52:08;;;;;;;16.38;14.73;;;;;;;20.87;29.73;95709.78;5093103;28;20043;-77
2023/02/17 08:54:33;;;;;;;19.20;14.90;;;;;;;21.19;29.55;95710.53;5077978;28;20062;-77
2023/02/17 08:56:59;;;;;;;18.77;14.30;;;;;;;20.46;30.58;95715.56;5072813;28;20121;-77
2023/02/17 08:59:24;;;;;;;17.27;14.70;;;;;;;21.52;29.19;95697.81;5073858;28;20036;-76
2023/02/17 09:01:49;;;;;;;16.95;14.70;;;;;;;19.53;31.28;95704.88;5073705;28;20373;-77
2023/02/17 09:04:15;;;;;;;20.33;14.90;;;;;;;19.19;32.38;95706.75;5072948;28;20020;-77
2023/02/17 09:06:46;;;;;;;18.52;15.43;;;;;;;20.07;32.18;95702.59;5074486;28;20039;-77
2023/02/17 09:09:14;;;;;;;16.45;14.73;;;;;;;21.63;29.71;95698.94;5075986;28;20488;-78
2023/02/17 09:11:40;;;;;;;22.67;15.57;;;;;;;21.42;29.91;95704.63;5095163;28;20028;-77
2023/02/17 09:14:06;;;;;;;20.30;15.05;;;;;;;19.88;31.32;95700.88;5093148;28;20036;-77
2023/02/17 09:16:32;;;;;;;19.10;15.07;;;;;;;20.37;30.39;95698.41;5094049;28;20591;-77
2023/02/17 09:18:57;;;;;;;16.83;15.13;;;;;;;21.22;29.58;95683.75;5093927;28;20028;-77
2023/02/17 09:21:23;;;;;;;19.38;14.10;;;;;;;21.70;29.67;95688.31;5076283;28;20556;-77
2023/02/17 09:23:49;;;;;;;17.80;14.80;;;;;;;21.35;29.24;95682.81;5094249;28;20430;-77
2023/02/17 09:26:15;;;;;;;19.58;14.85;;;;;;;21.01;30.28;95692.03;5092702;28;20085;-78
2023/02/17 09:28:41;;;;;;;17.73;15.05;;;;;;;20.81;30.48;95684.31;5079214;28;20020;-77
2023/02/17 09:31:08;;;;;;;17.23;15.43;;;;;;;21.50;29.62;95678.78;5096067;28;20020;-77
2023/02/17 09:33:33;;;;;;;16.52;14.90;;;;;;;21.40;29.71;95689.03;5099623;28;20492;-77
2023/02/17 09:35:59;;;;;;;17.42;15.32;;;;;;;20.95;30.28;95677.91;5079780;28;20042;-77
2023/02/17 09:38:25;;;;;;;24.23;14.55;;;;;;;21.54;30.53;95679.94;5079841;28;20406;-77
2023/02/17 09:40:51;;;;;;;18.92;15.73;;;;;;;20.99;29.88;95673.00;5060372;28;20027;-77
2023/02/17 09:43:20;;;;;;;17.38;14.98;;;;;;;20.28;30.48;95686.53;5076563;28;20353;-77
2023/02/17 09:45:49;;;;;;;21.52;16.13;;;;;;;20.84;30.85;95677.78;5060134;28;20036;-77
2023/02/17 09:48:17;;;;;;;21.95;16.50;;;;;;;20.42;31.22;95680.16;5077024;28;21129;-77
2023/02/17 09:50:56;;;;;;;22.02;15.90;;;;;;;20.96;31.01;95684.00;5059128;28;20036;-78
2023/02/17 09:53:21;;;;;;;18.20;16.25;;;;;;;20.65;31.06;95681.41;5076840;28;20028;-77
2023/02/17 09:55:48;;;;;;;19.05;16.30;;;;;;;21.49;30.63;95682.44;5079721;28;20039;-78
2023/02/17 09:58:41;;;;;;;23.88;17.35;;;;;;;21.17;31.30;95682.78;5079845;28;20227;-78
2023/02/17 10:01:11;;;;;;;18.17;15.82;;;;;;;20.90;30.68;95671.69;5067566;28;20036;-78
2023/02/17 10:03:40;;;;;;;20.08;16.08;;;;;;;21.73;30.48;95666.75;5079688;28;20043;-78
2023/02/17 10:06:28;;;;;;;18.10;16.27;;;;;;;20.66;31.26;95665.41;5081300;28;20035;-77
2023/02/17 10:09:21;;;;;;;16.90;15.10;;;;;;;20.32;31.77;95666.69;5088753;28;20023;-77
2023/02/17 10:12:20;;;;;;;17.98;16.02;;;;;;;20.69;31.08;95658.88;5080050;28;20492;-78
2023/02/17 10:14:50;;;;;;;16.98;15.20;;;;;;;21.24;31.04;95644.81;5060119;28;20041;-78
2023/02/17 10:17:25;;;;;;;18.33;15.95;;;;;;;21.60;31.15;95641.34;5079679;28;20055;-77
2023/02/17 10:20:03;;;;;;;17.70;16.00;;;;;;;21.37;31.22;95647.31;5073910;28;20764;-77
2023/02/17 10:22:30;;;;;;;17.40;15.52;;;;;;;21.77;30.60;95641.56;5075697;28;20124;-77
2023/02/17 10:24:56;;;;;;;17.08;14.52;;;;;;;20.87;32.00;95643.16;5058824;28;20043;-77
2023/02/17 10:27:28;;;;;;;19.27;15.27;;;;;;;19.86;32.76;95637.19;5056733;28;20017;-78
2023/02/17 10:30:03;;;;;;;22.33;14.23;;;;;;;20.91;30.75;95626.66;5074761;28;20035;-81
2023/02/17 10:32:31;;;;;;;18.65;15.30;;;;;;;16.09;38.30;95635.00;5078030;28;20510;-76
2023/02/17 10:35:04;;;;;;;21.30;16.33;;;;;;;16.48;38.48;95629.28;5075016;28;20032;-77
2023/02/17 10:37:44;;;;;;;19.20;15.52;;;;;;;16.27;39.25;95629.34;5080021;28;20105;-77
2023/02/17 10:40:19;;;;;;;18.48;14.23;;;;;;;16.68;38.46;95616.38;5074422;28;20028;-77
2023/02/17 10:42:46;;;;;;;21.42;14.38;;;;;;;16.70;38.17;95619.59;5080309;28;20032;-77
2023/02/17 10:45:30;;;;;;;20.00;16.67;;;;;;;16.92;37.88;95613.28;5078040;28;20092;-76
2023/02/17 10:48:03;;;;;;;17.88;12.93;;;;;;;16.48;38.24;95610.97;5077834;28;20020;-76
2023/02/17 10:50:29;;;;;;;17.05;13.38;;;;;;;16.29;38.96;95612.47;5079351;28;20077;-77
2023/02/17 10:52:55;;;;;;;14.57;12.88;;;;;;;16.23;38.93;95612.41;5077024;28;20032;-77
2023/02/17 10:55:37;;;;;;;21.33;14.15;;;;;;;16.26;38.39;95599.78;5078073;28;20642;-77
2023/02/17 10:58:13;;;;;;;18.05;14.15;;;;;;;16.31;38.94;95599.22;5060364;28;20445;-77
2023/02/17 11:00:40;;;;;;;14.60;12.52;;;;;;;15.80;38.48;95588.91;5076895;28;20099;-76
2023/02/17 11:03:20;;;;;;;22.15;13.68;;;;;;;15.40;40.20;95594.72;5077630;28;20127;-77
2023/02/17 11:05:57;;;;;;;21.60;12.07;;;;;;;15.56;38.85;95584.06;5059584;28;20085;-82
2023/02/17 11:08:28;;;;;;;14.60;11.18;;;;;;;15.80;37.74;95581.06;5073400;28;20097;-76
2023/02/17 11:11:05;;;;;;;16.98;12.63;;;;;;;15.39;38.82;95587.88;5076777;28;20024;-76
2023/02/17 11:13:41;;;;;;;18.27;13.63;;;;;;;15.51;39.28;95581.19;5077017;28;20027;-76
2023/02/17 11:16:20;;;;;;;17.60;12.38;;;;;;;15.77;39.89;95575.41;5060838;28;20118;-76
2023/02/17 11:18:45;;;;;;;;;;;;;;;15.49;38.14;95567.53;5042218;28;20020;-79
2023/02/17 11:21:11;;;;;;;8.47;6.00;;;;;;;15.74;37.91;95573.19;5057793;28;20286;-77
2023/02/17 11:23:48;;;;;;;8.55;6.15;;;;;;;15.68;37.34;95566.91;5073109;28;20285;-77
2023/02/17 11:26:22;;;;;;;7.93;6.10;;;;;;;15.65;38.37;95561.25;5077571;28;20028;-78